createdAt,value
2022-11-14T00:01:21.225Z,0.73
2022-11-14T00:03:51.152Z,0.60
2022-11-14T00:06:18.479Z,0.60
2022-11-14T00:08:45.774Z,0.70
2022-11-14T00:11:13.205Z,0.60
2022-11-14T00:13:40.652Z,0.70
2022-11-14T00:16:07.914Z,0.80
2022-11-14T00:18:35.306Z,0.67
2022-11-14T00:21:05.771Z,0.90
2022-11-14T00:23:33.163Z,0.87
2022-11-14T00:26:00.575Z,0.80
2022-11-14T00:28:28.199Z,0.70
2022-11-14T00:30:55.815Z,0.70
2022-11-14T00:33:23.134Z,0.70
2022-11-14T00:35:57.040Z,0.70
2022-11-14T00:38:24.807Z,0.70
2022-11-14T00:40:52.286Z,0.77
2022-11-14T00:43:19.757Z,0.60
2022-11-14T00:45:47.914Z,1.00
2022-11-14T00:48:15.695Z,1.30
2022-11-14T00:50:43.689Z,0.60
2022-11-14T00:53:11.018Z,0.70
2022-11-14T00:55:38.749Z,0.80
2022-11-14T00:58:06.085Z,0.97
2022-11-14T01:00:33.469Z,0.97
2022-11-14T01:03:01.052Z,0.70
2022-11-14T01:05:28.915Z,0.73
2022-11-14T01:07:56.545Z,0.70
2022-11-14T01:10:23.991Z,0.80
2022-11-14T01:12:51.427Z,0.77
2022-11-14T01:15:18.780Z,0.80
2022-11-14T01:17:46.157Z,0.63
2022-11-14T01:20:13.497Z,0.73
2022-11-14T01:22:40.798Z,0.97
2022-11-14T01:25:08.402Z,0.90
2022-11-14T01:27:35.819Z,0.90
2022-11-14T01:30:03.254Z,0.73
2022-11-14T01:32:30.624Z,0.60
2022-11-14T01:34:58.000Z,0.70
2022-11-14T01:37:25.373Z,0.63
2022-11-14T01:39:52.748Z,0.70
2022-11-14T01:42:23.103Z,0.77
2022-11-14T01:44:53.826Z,0.70
2022-11-14T01:47:22.504Z,0.70
2022-11-14T01:49:52.634Z,0.50
2022-11-14T01:52:34.581Z,0.60
2022-11-14T01:55:02.889Z,0.67
2022-11-14T01:57:50.389Z,0.77
2022-11-14T02:00:17.758Z,0.73
2022-11-14T02:02:45.158Z,0.60
2022-11-14T02:05:13.841Z,0.67
2022-11-14T02:07:42.235Z,0.70
2022-11-14T02:10:11.083Z,0.90
2022-11-14T02:12:38.772Z,0.80
2022-11-14T02:15:06.552Z,0.70
2022-11-14T02:17:33.915Z,0.80
2022-11-14T02:20:05.493Z,0.90
2022-11-14T02:22:33.239Z,0.90
2022-11-14T02:25:00.613Z,0.70
2022-11-14T02:27:28.176Z,0.80
2022-11-14T02:30:03.525Z,0.60
2022-11-14T02:32:45.035Z,0.60
2022-11-14T02:35:18.293Z,0.73
2022-11-14T02:37:45.684Z,0.70
2022-11-14T02:40:13.288Z,0.80
2022-11-14T02:42:40.639Z,0.77
2022-11-14T02:45:08.492Z,0.70
2022-11-14T02:47:35.881Z,0.80
2022-11-14T02:50:03.279Z,0.70
2022-11-14T02:52:30.584Z,1.07
2022-11-14T02:54:57.969Z,0.80
2022-11-14T02:57:25.504Z,0.70
2022-11-14T02:59:52.768Z,0.80
2022-11-14T03:02:20.118Z,0.83
2022-11-14T03:04:47.484Z,0.70
2022-11-14T03:07:14.937Z,0.70
2022-11-14T03:09:42.452Z,0.80
2022-11-14T03:12:10.119Z,1.00
2022-11-14T03:14:37.450Z,0.60
2022-11-14T03:17:07.113Z,0.70
2022-11-14T03:19:34.448Z,0.80
2022-11-14T03:22:01.887Z,1.00
2022-11-14T03:24:29.262Z,0.77
2022-11-14T03:26:56.700Z,0.80
2022-11-14T03:29:23.995Z,0.60
2022-11-14T03:31:51.542Z,0.70
2022-11-14T03:34:18.901Z,0.63
2022-11-14T03:36:46.211Z,0.80
2022-11-14T03:39:13.522Z,0.60
2022-11-14T03:41:40.822Z,1.00
2022-11-14T03:44:08.124Z,0.77
2022-11-14T03:46:35.512Z,0.90
2022-11-14T03:49:02.834Z,0.90
2022-11-14T03:51:30.205Z,0.63
2022-11-14T03:53:57.626Z,0.90
2022-11-14T03:56:24.928Z,0.80
2022-11-14T03:58:52.217Z,1.00
2022-11-14T04:01:19.718Z,0.73
2022-11-14T04:03:47.091Z,1.00
2022-11-14T04:06:15.366Z,0.83
2022-11-14T04:08:42.743Z,0.70
2022-11-14T04:11:10.078Z,0.57
2022-11-14T04:13:37.424Z,0.73
2022-11-14T04:16:04.858Z,0.70
2022-11-14T04:18:32.469Z,0.70
2022-11-14T04:20:59.999Z,0.80
2022-11-14T04:23:27.260Z,0.70
2022-11-14T04:25:54.649Z,0.80
2022-11-14T04:28:21.977Z,0.60
2022-11-14T04:30:49.340Z,0.77
2022-11-14T04:33:16.680Z,0.70
2022-11-14T04:35:44.021Z,0.60
2022-11-14T04:38:11.376Z,0.70
2022-11-14T04:40:38.752Z,0.70
2022-11-14T04:43:06.100Z,0.50
2022-11-14T04:45:33.603Z,0.67
2022-11-14T04:48:01.039Z,0.50
2022-11-14T04:50:28.426Z,0.70
2022-11-14T04:52:55.777Z,0.70
2022-11-14T04:55:23.151Z,0.63
2022-11-14T04:57:55.046Z,0.80
2022-11-14T05:00:22.615Z,0.53
2022-11-14T05:02:50.000Z,0.90
2022-11-14T05:05:17.626Z,0.90
2022-11-14T05:07:44.973Z,1.00
2022-11-14T05:10:12.295Z,0.77
2022-11-14T05:12:39.682Z,0.70
2022-11-14T05:15:07.329Z,0.90
2022-11-14T05:17:34.653Z,0.90
2022-11-14T05:20:02.011Z,1.00
2022-11-14T05:22:29.335Z,0.70
2022-11-14T05:24:56.626Z,0.80
2022-11-14T05:27:23.979Z,0.90
2022-11-14T05:29:51.401Z,0.77
2022-11-14T05:32:18.750Z,0.90
2022-11-14T05:34:46.095Z,0.83
2022-11-14T05:37:13.534Z,0.90
2022-11-14T05:39:40.893Z,1.20
2022-11-14T05:42:08.231Z,1.00
2022-11-14T05:44:35.658Z,0.80
2022-11-14T05:47:03.047Z,1.30
2022-11-14T05:49:30.363Z,1.00
2022-11-14T05:51:57.640Z,1.10
2022-11-14T05:54:24.968Z,1.70
2022-11-14T05:56:52.253Z,4.00
2022-11-14T05:59:19.651Z,3.10
2022-11-14T06:01:47.167Z,2.00
2022-11-14T06:04:15.298Z,1.50
2022-11-14T06:06:42.740Z,1.10
2022-11-14T06:09:13.330Z,1.50
2022-11-14T06:11:40.605Z,1.20
2022-11-14T06:14:10.951Z,1.03
2022-11-14T06:16:38.666Z,1.10
2022-11-14T06:19:06.140Z,1.57
2022-11-14T06:21:33.517Z,2.10
2022-11-14T06:24:00.982Z,1.97
2022-11-14T06:26:32.752Z,1.40
2022-11-14T06:29:00.672Z,1.20
2022-11-14T06:31:28.259Z,1.50
2022-11-14T06:33:56.881Z,2.00
2022-11-14T06:36:24.366Z,1.80
2022-11-14T06:38:51.756Z,1.50
2022-11-14T06:41:20.880Z,1.37
2022-11-14T06:43:49.382Z,2.43
2022-11-14T06:46:18.188Z,1.93
2022-11-14T06:48:46.172Z,1.40
2022-11-14T06:51:14.346Z,1.73
2022-11-14T06:53:41.981Z,1.40
2022-11-14T06:56:13.108Z,1.47
2022-11-14T06:58:41.508Z,1.20
2022-11-14T07:01:19.719Z,0.87
2022-11-14T07:03:47.587Z,1.20
2022-11-14T07:06:16.344Z,1.20
2022-11-14T07:08:43.834Z,0.97
2022-11-14T07:11:12.705Z,0.93
2022-11-14T07:13:40.188Z,1.20
2022-11-14T07:16:07.719Z,1.10
2022-11-14T07:18:35.113Z,1.27
2022-11-14T07:21:03.730Z,1.13
2022-11-14T07:23:32.138Z,1.10
2022-11-14T07:26:09.788Z,0.83
2022-11-14T07:28:38.297Z,1.00
2022-11-14T07:31:06.614Z,1.00
2022-11-14T07:33:34.570Z,0.93
2022-11-14T07:36:02.046Z,1.10
2022-11-14T07:38:31.404Z,1.00
2022-11-14T07:41:03.597Z,1.00
2022-11-14T07:43:31.077Z,1.10
2022-11-14T07:46:02.407Z,1.17
2022-11-14T07:48:30.745Z,1.23
2022-11-14T07:51:01.775Z,1.20
2022-11-14T07:53:29.431Z,1.40
2022-11-14T07:55:57.604Z,1.00
2022-11-14T07:58:28.035Z,0.90
2022-11-14T08:00:55.667Z,1.13
2022-11-14T08:03:23.152Z,1.23
2022-11-14T08:05:54.112Z,0.93
2022-11-14T08:08:21.482Z,1.30
2022-11-14T08:10:48.886Z,1.23
2022-11-14T08:13:33.079Z,1.23
2022-11-14T08:16:07.938Z,1.40
2022-11-14T08:18:39.599Z,0.70
2022-11-14T08:21:07.149Z,1.10
2022-11-14T08:23:34.870Z,1.10
2022-11-14T08:26:05.399Z,1.20
2022-11-14T08:28:33.069Z,0.70
2022-11-14T08:31:02.424Z,1.00
2022-11-14T08:33:30.223Z,1.03
2022-11-14T08:36:00.838Z,1.20
2022-11-14T08:38:28.707Z,1.10
2022-11-14T08:40:59.310Z,0.93
2022-11-14T08:43:26.685Z,0.77
2022-11-14T08:45:54.157Z,0.87
2022-11-14T08:48:21.641Z,0.80
2022-11-14T08:50:49.038Z,0.70
2022-11-14T08:53:19.689Z,0.67
2022-11-14T08:55:47.698Z,0.70
2022-11-14T08:58:15.249Z,0.60
2022-11-14T09:00:42.887Z,0.63
2022-11-14T09:03:11.909Z,0.93
2022-11-14T09:05:39.359Z,0.50
2022-11-14T09:08:07.832Z,0.70
2022-11-14T09:10:35.875Z,0.70
2022-11-14T09:13:03.266Z,0.50
2022-11-14T09:15:30.999Z,0.70
2022-11-14T09:17:58.869Z,0.60
2022-11-14T09:20:31.678Z,0.50
2022-11-14T09:23:02.138Z,0.60
2022-11-14T09:25:30.465Z,0.60
2022-11-14T09:27:58.366Z,0.67
2022-11-14T09:30:25.819Z,0.50
2022-11-14T09:32:53.299Z,0.70
2022-11-14T09:35:20.692Z,0.60
2022-11-14T09:37:48.106Z,0.50
2022-11-14T09:40:15.588Z,0.50
2022-11-14T09:43:01.501Z,0.40
2022-11-14T09:45:29.377Z,0.40
2022-11-14T09:48:01.385Z,0.40
2022-11-14T09:50:34.904Z,0.57
2022-11-14T09:53:31.621Z,0.30
2022-11-14T09:55:59.476Z,0.33
2022-11-14T09:58:27.640Z,0.33
2022-11-14T10:01:06.396Z,0.23
2022-11-14T10:03:52.298Z,0.30
2022-11-14T10:06:38.430Z,0.40
2022-11-14T10:09:22.186Z,0.40
2022-11-14T10:12:06.629Z,0.40
2022-11-14T10:14:37.245Z,1.03
2022-11-14T10:17:10.220Z,0.80
2022-11-14T10:19:42.847Z,1.80
2022-11-14T10:22:31.598Z,1.70
2022-11-14T10:24:59.018Z,2.67
2022-11-14T10:27:34.878Z,1.70
2022-11-14T10:30:05.481Z,1.60
2022-11-14T10:32:32.843Z,0.87
2022-11-14T10:35:00.221Z,1.10
2022-11-14T10:37:32.559Z,1.30
2022-11-14T10:40:15.308Z,1.40
2022-11-14T10:42:45.106Z,1.07
2022-11-14T10:45:30.259Z,1.10
2022-11-14T10:48:02.278Z,0.90
2022-11-14T10:50:34.195Z,0.97
2022-11-14T10:53:03.386Z,0.93
2022-11-14T10:56:02.386Z,1.10
2022-11-14T10:58:18.271Z,1.10
2022-11-14T11:00:45.713Z,1.40
2022-11-14T11:03:13.208Z,1.23
2022-11-14T11:06:00.022Z,1.00
2022-11-14T11:08:46.229Z,1.03
2022-11-14T11:11:32.658Z,1.10
2022-11-14T11:14:01.291Z,1.00
2022-11-14T11:16:30.524Z,1.10
2022-11-14T11:19:23.769Z,1.00
2022-11-14T11:21:53.258Z,1.10
2022-11-14T11:24:46.688Z,0.90
2022-11-14T11:27:23.073Z,1.20
2022-11-14T11:30:09.233Z,1.10
2022-11-14T11:32:36.676Z,1.33
2022-11-14T11:35:05.269Z,1.10
2022-11-14T11:37:36.639Z,1.00
2022-11-14T11:40:05.333Z,0.90
2022-11-14T11:43:36.813Z,1.13
2022-11-14T11:45:26.982Z,0.97
2022-11-14T11:47:59.539Z,1.20
2022-11-14T11:50:27.069Z,1.20
2022-11-14T11:53:13.090Z,1.00
2022-11-14T11:55:45.039Z,1.10
2022-11-14T11:58:32.672Z,0.90
2022-11-14T12:01:00.143Z,0.87
2022-11-14T12:03:27.827Z,1.10
2022-11-14T12:06:13.834Z,1.13
2022-11-14T12:09:00.024Z,1.10
2022-11-14T12:11:29.243Z,0.97
2022-11-14T12:14:15.337Z,0.90
2022-11-14T12:16:42.673Z,1.10
2022-11-14T12:19:25.384Z,1.20
2022-11-14T12:22:15.735Z,1.30
2022-11-14T12:25:01.781Z,1.40
2022-11-14T12:27:32.122Z,1.47
2022-11-14T12:30:02.479Z,1.60
2022-11-14T12:32:32.465Z,1.30
2022-11-14T12:35:00.810Z,1.30
2022-11-14T12:37:32.293Z,1.20
2022-11-14T12:40:01.297Z,1.40
2022-11-14T12:42:28.967Z,1.40
2022-11-14T12:44:56.371Z,1.47
2022-11-14T12:47:27.875Z,1.43
2022-11-14T12:49:56.670Z,1.70
2022-11-14T12:52:45.103Z,1.23
2022-11-14T12:55:27.570Z,1.00
2022-11-14T12:58:11.240Z,0.70
2022-11-14T13:00:40.631Z,1.00
2022-11-14T13:03:19.586Z,1.00
2022-11-14T13:05:53.207Z,0.90
2022-11-14T13:08:20.628Z,1.10
2022-11-14T13:10:48.296Z,1.00
2022-11-14T13:13:35.658Z,1.37
2022-11-14T13:16:23.053Z,1.10
2022-11-14T13:19:27.569Z,1.00
2022-11-14T13:22:13.207Z,1.37
2022-11-14T13:24:58.880Z,1.50
2022-11-14T13:28:05.189Z,1.63
2022-11-14T13:30:43.275Z,1.60
2022-11-14T13:33:10.843Z,1.27
2022-11-14T13:35:41.279Z,1.30
2022-11-14T13:38:14.830Z,1.47
2022-11-14T13:41:01.053Z,1.33
2022-11-14T13:43:46.987Z,1.53
2022-11-14T13:46:36.608Z,1.60
2022-11-14T13:49:25.825Z,1.00
2022-11-14T13:51:54.104Z,0.90
2022-11-14T13:54:21.695Z,1.10
2022-11-14T13:57:12.435Z,1.30
2022-11-14T13:59:53.350Z,1.37
2022-11-14T14:02:29.805Z,1.10
2022-11-14T14:05:00.278Z,1.10
2022-11-14T14:07:33.769Z,1.10
2022-11-14T14:10:01.172Z,1.20
2022-11-14T14:12:34.753Z,1.10
2022-11-14T14:15:02.194Z,1.13
2022-11-14T14:17:38.631Z,0.90
2022-11-14T14:20:05.972Z,0.70
2022-11-14T14:22:39.125Z,0.90
2022-11-14T14:25:25.021Z,1.10
2022-11-14T14:28:06.948Z,0.80
2022-11-14T14:30:34.367Z,0.97
2022-11-14T14:33:04.824Z,1.00
2022-11-14T14:35:37.359Z,1.00
2022-11-14T14:38:12.091Z,1.10
2022-11-14T14:40:41.196Z,1.00
2022-11-14T14:43:09.066Z,0.80
2022-11-14T14:45:47.248Z,0.90
2022-11-14T14:48:15.831Z,1.30
2022-11-14T14:50:48.612Z,1.10
2022-11-14T14:53:33.013Z,1.20
2022-11-14T14:56:01.817Z,0.97
2022-11-14T14:58:30.800Z,0.90
2022-11-14T15:01:01.301Z,0.80
2022-11-14T15:03:36.603Z,0.70
2022-11-14T15:06:06.572Z,1.30
2022-11-14T15:08:37.964Z,1.10
2022-11-14T15:11:06.646Z,1.17
2022-11-14T15:13:34.915Z,0.90
2022-11-14T15:16:03.280Z,1.00
2022-11-14T15:18:32.387Z,0.70
2022-11-14T15:21:15.754Z,0.90
2022-11-14T15:23:43.173Z,1.07
2022-11-14T15:26:15.175Z,1.03
2022-11-14T15:28:42.986Z,0.90
2022-11-14T15:31:16.854Z,0.93
2022-11-14T15:33:44.261Z,0.83
2022-11-14T15:36:13.276Z,0.70
2022-11-14T15:38:44.875Z,0.80
2022-11-14T15:41:22.887Z,0.70
2022-11-14T15:43:53.166Z,0.80
2022-11-14T15:46:35.952Z,0.87
2022-11-14T15:49:15.290Z,0.70
2022-11-14T15:51:47.686Z,0.60
2022-11-14T15:54:44.733Z,0.80
2022-11-14T15:57:16.786Z,0.70
2022-11-14T15:59:44.478Z,0.90
2022-11-14T16:02:17.938Z,0.60
2022-11-14T16:04:47.776Z,0.63
2022-11-14T16:07:16.067Z,0.70
2022-11-14T16:09:43.542Z,0.50
2022-11-14T16:12:10.936Z,0.50
2022-11-14T16:14:38.352Z,0.50
2022-11-14T16:17:06.050Z,0.60
2022-11-14T16:19:33.523Z,0.60
2022-11-14T16:22:03.052Z,0.67
2022-11-14T16:24:34.262Z,0.50
2022-11-14T16:27:04.548Z,0.80
2022-11-14T16:29:32.002Z,0.60
2022-11-14T16:31:59.455Z,0.70
2022-11-14T16:34:27.422Z,0.80
2022-11-14T16:37:01.833Z,1.00
2022-11-14T16:39:29.493Z,1.40
2022-11-14T16:42:03.290Z,1.90
2022-11-14T16:44:34.555Z,1.17
2022-11-14T16:47:06.387Z,0.87
2022-11-14T16:49:33.727Z,1.27
2022-11-14T16:52:05.628Z,1.20
2022-11-14T16:54:33.391Z,1.20
2022-11-14T16:57:00.784Z,1.10
2022-11-14T16:59:28.196Z,1.00
2022-11-14T17:01:55.671Z,0.77
2022-11-14T17:04:23.243Z,0.50
2022-11-14T17:06:50.724Z,0.60
2022-11-14T17:09:18.168Z,0.70
2022-11-14T17:11:45.659Z,0.87
2022-11-14T17:14:13.481Z,0.53
2022-11-14T17:16:40.913Z,0.60
2022-11-14T17:19:08.421Z,0.50
2022-11-14T17:21:35.962Z,0.53
2022-11-14T17:24:03.460Z,0.50
2022-11-14T17:26:30.954Z,0.60
2022-11-14T17:28:58.495Z,0.57
2022-11-14T17:31:25.886Z,0.63
2022-11-14T17:33:54.336Z,0.60
2022-11-14T17:36:22.354Z,0.83
2022-11-14T17:38:49.909Z,0.80
2022-11-14T17:41:17.318Z,1.00
2022-11-14T17:43:44.933Z,1.03
2022-11-14T17:46:15.991Z,0.73
2022-11-14T17:48:44.467Z,1.00
2022-11-14T17:51:13.230Z,1.07
2022-11-14T17:53:41.133Z,1.10
2022-11-14T17:56:09.205Z,1.00
2022-11-14T17:58:36.710Z,0.90
2022-11-14T18:01:09.588Z,1.20
2022-11-14T18:03:37.130Z,1.50
2022-11-14T18:06:11.284Z,0.87
2022-11-14T18:08:38.893Z,1.10
2022-11-14T18:11:07.678Z,0.80
2022-11-14T18:13:35.022Z,1.17
2022-11-14T18:16:03.274Z,1.00
2022-11-14T18:18:32.550Z,0.93
2022-11-14T18:21:06.440Z,1.03
2022-11-14T18:23:35.401Z,1.10
2022-11-14T18:26:08.940Z,0.80
2022-11-14T18:28:36.275Z,1.20
2022-11-14T18:31:10.263Z,2.50
2022-11-14T18:33:38.141Z,4.73
2022-11-14T18:36:06.571Z,12.50
2022-11-14T18:38:34.293Z,4.10
2022-11-14T18:41:03.495Z,2.80
2022-11-14T18:43:32.982Z,1.87
2022-11-14T18:46:21.788Z,2.63
2022-11-14T18:48:49.983Z,1.97
2022-11-14T18:51:19.041Z,1.63
2022-11-14T18:53:46.520Z,1.00
2022-11-14T18:56:15.461Z,0.90
2022-11-14T18:58:43.404Z,0.57
2022-11-14T19:01:15.315Z,0.90
2022-11-14T19:03:43.021Z,0.70
2022-11-14T19:06:12.148Z,1.10
2022-11-14T19:08:39.821Z,0.87
2022-11-14T19:11:08.683Z,0.80
2022-11-14T19:13:36.089Z,0.80
2022-11-14T19:16:06.919Z,0.70
2022-11-14T19:18:34.268Z,0.40
2022-11-14T19:21:02.983Z,0.70
2022-11-14T19:23:30.892Z,1.00
2022-11-14T19:25:59.695Z,1.33
2022-11-14T19:28:27.639Z,1.37
2022-11-14T19:30:55.073Z,1.40
2022-11-14T19:33:22.517Z,1.10
2022-11-14T19:35:49.947Z,0.70
2022-11-14T19:38:17.330Z,0.80
2022-11-14T19:40:50.866Z,0.77
2022-11-14T19:43:18.865Z,0.90
2022-11-14T19:45:46.258Z,1.03
2022-11-14T19:48:14.001Z,0.80
2022-11-14T19:50:41.356Z,0.70
2022-11-14T19:53:08.774Z,0.90
2022-11-14T19:55:36.080Z,0.93
2022-11-14T19:58:03.570Z,0.80
2022-11-14T20:00:30.904Z,0.60
2022-11-14T20:02:58.294Z,0.60
2022-11-14T20:05:25.778Z,0.47
2022-11-14T20:07:54.661Z,0.40
2022-11-14T20:10:22.109Z,0.70
2022-11-14T20:12:49.562Z,0.80
2022-11-14T20:15:17.052Z,0.90
2022-11-14T20:17:44.546Z,0.80
2022-11-14T20:20:11.953Z,1.00
2022-11-14T20:22:39.419Z,1.00
2022-11-14T20:25:07.174Z,0.80
2022-11-14T20:27:34.605Z,1.00
2022-11-14T20:30:02.037Z,1.13
2022-11-14T20:32:29.399Z,0.97
2022-11-14T20:34:56.878Z,0.70
2022-11-14T20:37:24.309Z,0.63
2022-11-14T20:39:53.193Z,0.80
2022-11-14T20:42:20.759Z,0.70
2022-11-14T20:44:48.226Z,0.67
2022-11-14T20:47:17.473Z,0.60
2022-11-14T20:49:46.419Z,0.57
2022-11-14T20:52:15.274Z,0.50
2022-11-14T20:54:42.670Z,0.80
2022-11-14T20:57:10.102Z,0.87
2022-11-14T20:59:37.538Z,0.83
2022-11-14T21:02:05.225Z,0.67
2022-11-14T21:04:32.695Z,0.90
2022-11-14T21:07:00.089Z,0.70
2022-11-14T21:09:27.796Z,0.80
2022-11-14T21:11:55.235Z,0.80
2022-11-14T21:14:22.551Z,1.00
2022-11-14T21:16:50.101Z,0.93
2022-11-14T21:19:17.609Z,1.07
2022-11-14T21:21:45.068Z,0.60
2022-11-14T21:24:12.507Z,0.47
2022-11-14T21:26:40.542Z,0.50
2022-11-14T21:29:12.732Z,0.77
2022-11-14T21:31:44.739Z,0.60
2022-11-14T21:34:13.438Z,0.60
2022-11-14T21:36:46.072Z,0.90
2022-11-14T21:39:15.313Z,1.20
2022-11-14T21:41:43.665Z,0.90
2022-11-14T21:44:13.156Z,0.77
2022-11-14T21:46:41.086Z,0.60
2022-11-14T21:49:09.092Z,1.00
2022-11-14T21:51:36.459Z,0.80
2022-11-14T21:54:05.122Z,0.90
2022-11-14T21:56:37.214Z,0.50
2022-11-14T21:59:15.907Z,0.50
2022-11-14T22:02:06.753Z,0.50
2022-11-14T22:04:34.521Z,0.67
2022-11-14T22:07:05.856Z,1.13
2022-11-14T22:09:37.705Z,0.60
2022-11-14T22:12:08.738Z,0.80
2022-11-14T22:14:36.057Z,0.57
2022-11-14T22:17:03.421Z,0.70
2022-11-14T22:19:30.751Z,0.50
2022-11-14T22:21:58.303Z,0.50
2022-11-14T22:24:25.844Z,0.50
2022-11-14T22:26:53.295Z,0.50
2022-11-14T22:29:20.624Z,0.50
2022-11-14T22:31:48.084Z,0.57
2022-11-14T22:34:15.419Z,0.70
2022-11-14T22:36:42.734Z,0.80
2022-11-14T22:39:10.072Z,0.67
2022-11-14T22:41:38.954Z,0.60
2022-11-14T22:44:06.346Z,0.50
2022-11-14T22:46:33.798Z,0.87
2022-11-14T22:49:03.877Z,0.60
2022-11-14T22:51:31.890Z,0.50
2022-11-14T22:53:59.737Z,0.60
2022-11-14T22:56:28.603Z,0.50
2022-11-14T22:58:56.772Z,0.63
2022-11-14T23:01:25.451Z,0.43
2022-11-14T23:03:57.190Z,0.67
2022-11-14T23:06:25.334Z,0.70
2022-11-14T23:08:53.044Z,0.70
2022-11-14T23:11:21.660Z,0.60
2022-11-14T23:13:50.376Z,0.70
2022-11-14T23:16:19.271Z,0.70
2022-11-14T23:18:46.807Z,0.60
2022-11-14T23:21:15.834Z,0.50
2022-11-14T23:23:43.139Z,0.50
2022-11-14T23:26:11.855Z,0.60
2022-11-14T23:28:39.157Z,0.80
2022-11-14T23:31:07.186Z,0.80
2022-11-14T23:33:35.128Z,0.83
2022-11-14T23:36:03.038Z,0.60
2022-11-14T23:38:33.528Z,0.60
2022-11-14T23:41:02.520Z,1.20
2022-11-14T23:43:30.644Z,1.20
2022-11-14T23:45:58.719Z,1.30
2022-11-14T23:48:29.154Z,0.57
2022-11-14T23:50:57.454Z,0.60
2022-11-14T23:53:24.915Z,0.70
2022-11-14T23:55:55.525Z,0.60
2022-11-14T23:58:23.669Z,0.40
